Time;durP1;ratioP1;P1;durP2;ratioP2;P2;SDS_P1;SDS_P2;PMS_P1;PMS_P2;Temp;Humidity;BMP_temperature;BMP_pressure;BME280_temperature;BME280_humidity;BME280_pressure;Samples;Min_cycle;Max_cycle;Signal;HPM_P1;HPM_P2
2021/09/27 00:02:05;;;;;;;14.93;7.60;;;;;;;11.23;54.58;98458.56;4902307;29;20048;-75
2021/09/27 00:04:31;;;;;;;14.38;7.80;;;;;;;11.19;54.49;98453.50;4886840;29;20072;-74
2021/09/27 00:06:56;;;;;;;11.40;7.45;;;;;;;11.23;54.65;98472.78;4902181;29;20044;-76
2021/09/27 00:09:23;;;;;;;12.82;7.35;;;;;;;11.28;54.52;98464.28;4902172;29;20131;-75
2021/09/27 00:11:48;;;;;;;12.68;7.13;;;;;;;11.28;54.69;98458.94;4886394;29;20488;-75
2021/09/27 00:14:14;;;;;;;13.75;7.45;;;;;;;11.33;54.20;98473.56;4886152;29;20068;-75
2021/09/27 00:16:40;;;;;;;16.33;7.72;;;;;;;11.25;54.13;98465.44;4901932;29;20052;-73
2021/09/27 00:19:06;;;;;;;17.10;7.50;;;;;;;11.22;54.21;98457.72;4902071;29;20177;-75
2021/09/27 00:21:33;;;;;;;16.00;7.07;;;;;;;11.20;53.60;98467.72;4886104;29;20047;-75
2021/09/27 00:23:59;;;;;;;11.23;7.43;;;;;;;11.29;53.77;98468.69;4901715;29;20044;-75
2021/09/27 00:26:26;;;;;;;21.20;7.45;;;;;;;11.31;53.37;98478.22;4901614;29;20135;-77
2021/09/27 00:28:52;;;;;;;18.13;7.15;;;;;;;11.30;52.92;98476.53;4901377;29;20040;-75
2021/09/27 00:31:18;;;;;;;13.63;7.15;;;;;;;11.28;52.83;98481.19;4886320;29;20403;-76
2021/09/27 00:33:44;;;;;;;11.57;6.43;;;;;;;11.29;52.79;98477.53;4901565;29;20055;-74
2021/09/27 00:36:10;;;;;;;17.00;6.35;;;;;;;11.31;52.11;98475.53;4901629;29;20064;-75
2021/09/27 00:38:36;;;;;;;16.38;6.32;;;;;;;11.29;52.52;98472.19;4885608;29;20056;-75
2021/09/27 00:41:04;;;;;;;15.43;6.03;;;;;;;11.25;52.09;98476.16;4884503;29;20044;-75
2021/09/27 00:43:31;;;;;;;11.75;6.43;;;;;;;11.30;51.81;98476.53;4885764;29;20116;-76
2021/09/27 00:45:58;;;;;;;15.70;6.13;;;;;;;11.26;51.58;98471.63;4901820;29;20047;-76
2021/09/27 00:48:25;;;;;;;14.88;6.10;;;;;;;11.30;51.95;98473.88;4901505;29;20048;-77
2021/09/27 00:51:03;;;;;;;13.20;5.57;;;;;;;11.30;51.35;98484.56;4901332;29;20048;-76
2021/09/27 00:53:32;;;;;;;9.38;5.57;;;;;;;11.25;51.17;98486.00;4885860;29;20476;-76
2021/09/27 00:55:58;;;;;;;13.70;6.13;;;;;;;11.20;51.01;98483.75;4901197;29;20450;-75
2021/09/27 00:58:24;;;;;;;12.90;5.47;;;;;;;11.16;50.95;98474.34;4901272;29;20507;-75
2021/09/27 01:00:50;;;;;;;18.88;6.03;;;;;;;11.22;50.53;98481.78;4901182;29;20052;-75
2021/09/27 01:03:16;;;;;;;9.73;5.32;;;;;;;11.14;50.16;98479.84;4885361;29;20048;-74
2021/09/27 01:05:45;;;;;;;13.90;5.15;;;;;;;11.03;50.29;98481.88;4901072;29;20044;-74
2021/09/27 01:08:26;;;;;;;12.38;4.63;;;;;;;11.04;49.82;98488.91;4885021;29;20059;-76
2021/09/27 01:10:58;;;;;;;10.77;4.57;;;;;;;11.02;49.99;98480.16;4885334;29;20044;-75
2021/09/27 01:13:55;;;;;;;13.25;5.18;;;;;;;10.96;49.92;98470.91;4916538;29;20499;-75
2021/09/27 01:16:40;;;;;;;17.42;4.88;;;;;;;10.92;49.49;98481.06;4914699;29;20052;-76
2021/09/27 01:19:29;;;;;;;17.77;5.15;;;;;;;10.89;49.53;98475.16;4917920;29;20055;-75
2021/09/27 01:22:09;;;;;;;8.57;4.97;;;;;;;10.84;49.57;98472.94;4900816;29;20189;-76
2021/09/27 01:24:41;;;;;;;13.32;4.60;;;;;;;10.81;49.23;98477.72;4869556;29;20044;-75
2021/09/27 01:27:07;;;;;;;9.02;4.13;;;;;;;10.66;49.11;98474.66;4900971;29;20139;-76
2021/09/27 01:29:33;;;;;;;5.55;4.03;;;;;;;10.64;49.21;98476.63;4900390;29;20507;-76
2021/09/27 01:32:22;;;;;;;9.95;4.05;;;;;;;10.59;49.45;98486.91;4900748;29;20364;-75
2021/09/27 01:35:01;;;;;;;12.55;4.80;;;;;;;10.48;49.26;98487.09;4915778;29;20055;-76
2021/09/27 01:37:37;;;;;;;7.45;3.92;;;;;;;10.44;49.34;98476.69;4916063;29;20048;-74
2021/09/27 01:40:15;;;;;;;10.73;4.43;;;;;;;10.56;49.02;98471.16;4900239;29;20055;-76
2021/09/27 01:42:52;;;;;;;8.68;4.15;;;;;;;10.44;48.78;98471.34;4900636;29;20051;-75
2021/09/27 01:45:28;;;;;;;9.23;3.90;;;;;;;10.50;48.82;98490.47;4899934;29;20052;-74
2021/09/27 01:48:11;;;;;;;5.75;3.88;;;;;;;10.52;48.99;98491.16;4915916;29;20379;-75
2021/09/27 01:50:54;;;;;;;8.35;3.28;;;;;;;10.55;48.53;98494.38;4916843;29;20574;-75
2021/09/27 01:53:22;;;;;;;15.85;4.30;;;;;;;10.49;48.59;98486.94;4899599;29;20063;-75
2021/09/27 01:56:08;;;;;;;6.57;3.28;;;;;;;10.47;48.22;98491.59;4884296;29;20071;-75
2021/09/27 01:59:05;;;;;;;6.00;3.30;;;;;;;10.36;48.29;98467.69;4900159;29;20059;-75
2021/09/27 02:01:39;;;;;;;10.13;3.15;;;;;;;10.40;48.51;98480.63;4915790;29;20111;-74
2021/09/27 02:04:12;;;;;;;6.43;3.10;;;;;;;10.40;48.59;98485.97;4899968;29;20146;-75
2021/09/27 02:06:43;;;;;;;9.43;3.55;;;;;;;10.34;48.03;98469.66;4899642;29;20059;-75
2021/09/27 02:09:14;;;;;;;6.43;3.30;;;;;;;10.37;47.74;98475.56;4915790;29;20258;-75
2021/09/27 02:11:43;;;;;;;8.50;3.20;;;;;;;10.44;47.85;98487.38;4900189;29;20551;-76
2021/09/27 02:14:21;;;;;;;6.75;3.45;;;;;;;10.49;47.47;98494.09;4899677;29;20056;-75
2021/09/27 02:16:59;;;;;;;14.18;3.28;;;;;;;10.40;48.05;98493.97;4915414;29;20044;-76
2021/09/27 02:19:39;;;;;;;9.32;3.25;;;;;;;10.40;47.43;98493.13;4915369;29;20135;-76
2021/09/27 02:22:14;;;;;;;5.00;2.92;;;;;;;10.40;46.95;98491.31;4899979;29;20075;-75
2021/09/27 02:24:41;;;;;;;5.82;3.50;;;;;;;10.38;47.10;98490.63;4884327;29;20127;-77
2021/09/27 02:27:07;;;;;;;6.03;3.00;;;;;;;10.29;46.99;98472.75;4914920;29;20044;-76
2021/09/27 02:29:33;;;;;;;13.98;3.38;;;;;;;10.29;46.55;98478.09;4883705;29;20040;-77
2021/09/27 02:32:04;;;;;;;8.77;2.50;;;;;;;10.30;46.75;98487.78;4899163;29;20044;-77
2021/09/27 02:34:45;;;;;;;12.60;3.70;;;;;;;10.27;46.51;98490.78;4914791;29;20060;-75
2021/09/27 02:37:26;;;;;;;9.25;3.28;;;;;;;10.22;46.46;98495.66;4882930;29;20080;-76
2021/09/27 02:40:14;;;;;;;9.73;2.63;;;;;;;10.26;46.53;98485.56;4899164;29;20107;-76
2021/09/27 02:42:53;;;;;;;5.68;2.55;;;;;;;10.28;46.49;98471.09;4914694;29;20500;-75
2021/09/27 02:45:19;;;;;;;11.80;3.08;;;;;;;10.39;46.85;98500.31;4882056;29;20388;-74
2021/09/27 02:47:57;;;;;;;11.00;3.30;;;;;;;10.49;46.73;98504.78;4899326;29;20051;-76
2021/09/27 02:50:27;;;;;;;9.10;3.05;;;;;;;10.60;46.99;98512.66;4898711;29;20047;-76
2021/09/27 02:52:55;;;;;;;12.10;3.50;;;;;;;10.62;46.69;98500.84;4899274;29;20209;-77
2021/09/27 02:55:23;;;;;;;8.00;2.97;;;;;;;10.66;47.13;98506.75;4899467;29;20059;-74
2021/09/27 02:58:26;;;;;;;6.15;3.50;;;;;;;10.64;47.17;98506.03;4883599;29;20044;-90
2021/09/27 03:01:19;;;;;;;9.88;2.95;;;;;;;10.71;47.41;98520.50;4897648;29;20050;-88
2021/09/27 03:04:11;;;;;;;9.38;3.17;;;;;;;10.79;47.99;98517.97;4912146;29;20052;-85
2021/09/27 03:06:48;;;;;;;8.50;3.90;;;;;;;10.93;47.67;98520.19;4906426;29;20062;-79
2021/09/27 03:09:32;;;;;;;5.60;3.03;;;;;;;11.06;47.00;98527.06;4905809;29;20436;-77
2021/09/27 03:12:19;;;;;;;13.80;3.67;;;;;;;11.02;46.47;98517.63;4934135;29;20054;-78
2021/09/27 03:15:07;;;;;;;8.82;3.20;;;;;;;10.93;46.90;98520.19;4903151;29;20048;-78
2021/09/27 03:17:45;;;;;;;17.50;3.60;;;;;;;10.85;46.60;98528.09;4920376;29;20048;-85
2021/09/27 03:20:34;;;;;;;6.90;2.97;;;;;;;10.79;46.49;98528.66;4933600;29;20044;-79
2021/09/27 03:23:13;;;;;;;6.20;3.05;;;;;;;10.76;46.52;98533.47;4901052;29;20549;-80
2021/09/27 03:25:57;;;;;;;12.30;3.80;;;;;;;10.83;46.37;98535.41;4918560;29;20040;-78
2021/09/27 03:28:58;;;;;;;4.53;2.80;;;;;;;10.90;45.99;98533.00;4920003;29;20047;-81
2021/09/27 03:31:35;;;;;;;4.60;3.30;;;;;;;10.77;45.84;98533.31;4898684;29;20541;-78
2021/09/27 03:34:30;;;;;;;5.20;3.05;;;;;;;10.61;45.71;98517.88;4886775;29;20522;-80
2021/09/27 03:37:31;;;;;;;7.38;3.00;;;;;;;10.78;45.52;98545.69;4916350;29;20396;-79
2021/09/27 03:40:19;;;;;;;11.05;2.90;;;;;;;10.93;45.48;98536.22;4919868;29;20059;-80
2021/09/27 03:43:07;;;;;;;9.70;3.47;;;;;;;11.03;45.20;98538.88;4921655;29;20043;-79
2021/09/27 03:45:36;;;;;;;8.80;3.15;;;;;;;11.03;44.42;98535.38;4905452;29;20495;-79
2021/09/27 03:48:10;;;;;;;7.10;3.03;;;;;;;11.01;44.33;98538.16;4937059;29;20044;-81
2021/09/27 03:50:39;;;;;;;12.32;3.10;;;;;;;11.05;44.33;98544.06;4921122;29;20070;-76
2021/09/27 03:53:07;;;;;;;7.93;3.00;;;;;;;11.06;43.74;98535.09;4905916;29;20477;-78
2021/09/27 03:55:53;;;;;;;8.15;2.85;;;;;;;10.98;43.31;98548.31;4937140;29;20065;-76
2021/09/27 03:58:19;;;;;;;17.08;3.28;;;;;;;10.79;43.09;98544.69;4905371;29;20055;-75
2021/09/27 04:01:01;;;;;;;8.82;3.70;;;;;;;10.78;43.46;98535.00;4936790;29;20047;-76
2021/09/27 04:03:46;;;;;;;7.45;3.35;;;;;;;10.85;43.62;98545.97;4921565;29;20035;-75
2021/09/27 04:06:24;;;;;;;6.80;3.00;;;;;;;10.84;43.24;98542.44;4936656;29;20050;-77
2021/09/27 04:09:07;;;;;;;4.57;3.20;;;;;;;10.83;42.39;98551.47;4905456;29;20384;-78
2021/09/27 04:11:50;;;;;;;10.77;3.50;;;;;;;10.69;42.71;98554.56;4920816;29;20051;-77
2021/09/27 04:14:16;;;;;;;7.15;2.90;;;;;;;10.45;42.73;98553.19;4905494;29;20055;-77
2021/09/27 04:16:59;;;;;;;9.27;2.88;;;;;;;10.47;42.58;98549.53;4937996;29;20091;-77
2021/09/27 04:19:30;;;;;;;6.78;2.60;;;;;;;10.60;42.58;98561.59;4936568;29;20047;-76
2021/09/27 04:22:23;;;;;;;19.75;4.00;;;;;;;10.61;42.50;98557.13;4904986;29;20647;-75
2021/09/27 04:25:17;;;;;;;8.35;2.95;;;;;;;10.58;42.05;98554.72;4936624;29;20047;-79
2021/09/27 04:27:53;;;;;;;11.75;3.38;;;;;;;10.51;42.56;98564.28;4904909;29;20051;-76
2021/09/27 04:30:37;;;;;;;4.78;2.83;;;;;;;10.53;42.39;98547.16;4936103;29;20044;-77
2021/09/27 04:33:41;;;;;;;9.75;3.03;;;;;;;10.62;42.15;98558.81;4936027;29;20413;-77
2021/09/27 04:36:23;;;;;;;4.85;2.90;;;;;;;10.66;41.93;98554.84;4909625;29;20419;-76
2021/09/27 04:38:50;;;;;;;8.85;2.78;;;;;;;10.57;41.84;98553.88;4936147;29;20491;-76
2021/09/27 04:41:19;;;;;;;7.72;2.90;;;;;;;10.59;41.17;98543.03;4889110;29;20079;-76
2021/09/27 04:44:07;;;;;;;7.05;3.22;;;;;;;10.72;41.48;98567.66;4917748;29;20531;-77
2021/09/27 04:46:59;;;;;;;10.98;3.20;;;;;;;10.80;40.80;98562.44;4936022;29;20058;-75
2021/09/27 04:49:56;;;;;;;7.90;3.20;;;;;;;10.79;40.73;98560.72;4935580;29;20050;-76
2021/09/27 04:52:34;;;;;;;8.75;3.20;;;;;;;10.93;40.21;98570.97;4904721;29;20070;-77
2021/09/27 04:55:11;;;;;;;6.95;2.70;;;;;;;10.99;40.57;98571.41;4904576;29;20048;-76
2021/09/27 04:58:00;;;;;;;7.20;2.50;;;;;;;11.19;40.14;98575.72;4935858;29;20059;-76
2021/09/27 05:00:54;;;;;;;4.55;2.95;;;;;;;11.27;39.50;98575.81;4918163;29;20043;-76
2021/09/27 05:03:54;;;;;;;8.10;2.85;;;;;;;11.26;39.44;98565.28;4933419;29;20170;-78
2021/09/27 05:06:29;;;;;;;7.82;2.97;;;;;;;11.50;39.31;98586.16;4902064;29;20056;-77
2021/09/27 05:09:07;;;;;;;9.02;2.72;;;;;;;11.42;38.98;98579.69;4901922;29;20058;-77
2021/09/27 05:12:10;;;;;;;15.68;3.63;;;;;;;11.58;38.67;98578.22;4901967;29;20522;-77
2021/09/27 05:14:42;;;;;;;11.95;2.80;;;;;;;11.75;38.53;98584.66;4933966;29;20040;-75
2021/09/27 05:17:32;;;;;;;9.13;2.72;;;;;;;11.51;38.34;98555.72;4919897;29;20060;-77
2021/09/27 05:20:14;;;;;;;8.20;2.67;;;;;;;11.67;38.28;98561.28;4888600;29;20111;-75
2021/09/27 05:22:58;;;;;;;7.13;2.60;;;;;;;11.78;38.09;98568.28;4919763;29;20440;-77
2021/09/27 05:25:40;;;;;;;9.75;2.72;;;;;;;11.82;37.32;98572.34;4935036;29;20052;-76
2021/09/27 05:28:28;;;;;;;10.25;2.83;;;;;;;11.90;37.42;98567.97;4918559;29;20051;-77
2021/09/27 05:30:59;;;;;;;5.13;2.80;;;;;;;11.93;37.69;98550.75;4934955;29;20047;-77
2021/09/27 05:33:47;;;;;;;7.45;2.80;;;;;;;12.06;37.51;98561.94;4888414;29;20047;-77
2021/09/27 05:36:23;;;;;;;11.93;3.20;;;;;;;12.14;37.42;98553.97;4935347;29;20055;-75
2021/09/27 05:39:03;;;;;;;7.07;2.75;;;;;;;12.13;36.52;98552.28;4888040;29;20075;-76
2021/09/27 05:41:49;;;;;;;6.75;2.72;;;;;;;12.25;37.29;98560.94;4904050;29;20051;-77
2021/09/27 05:44:29;;;;;;;6.00;2.58;;;;;;;12.54;36.77;98565.25;4903822;29;20114;-77
2021/09/27 05:47:35;;;;;;;12.45;5.35;;;;;;;12.78;36.22;98552.03;4935503;29;20051;-78
2021/09/27 05:50:09;;;;;;;11.55;3.10;;;;;;;13.13;36.33;98547.59;4919448;29;20047;-77
2021/09/27 05:52:47;;;;;;;4.72;2.72;;;;;;;13.40;35.44;98551.13;4934995;29;20131;-77
2021/09/27 05:55:20;;;;;;;10.75;2.95;;;;;;;13.46;34.72;98550.47;4918289;29;20487;-77
2021/09/27 05:57:58;;;;;;;10.35;2.90;;;;;;;13.38;34.57;98555.78;4918601;29;20138;-77
2021/09/27 06:00:33;;;;;;;56.40;37.22;;;;;;;13.41;34.35;98548.25;4934782;29;20051;-76
2021/09/27 06:03:18;;;;;;;12.20;3.20;;;;;;;13.46;34.22;98555.84;4903658;29;20067;-77
2021/09/27 06:06:16;;;;;;;17.58;3.20;;;;;;;13.32;34.14;98562.66;4934647;29;20515;-76
2021/09/27 06:09:04;;;;;;;7.82;3.53;;;;;;;13.20;33.67;98561.19;4935189;29;20121;-76
2021/09/27 06:11:47;;;;;;;12.90;3.20;;;;;;;13.31;34.04;98559.13;4918800;29;20058;-77
2021/09/27 06:14:15;;;;;;;9.43;2.75;;;;;;;13.45;34.20;98555.00;4934633;29;20114;-76
2021/09/27 06:16:59;;;;;;;106.07;62.95;;;;;;;13.40;33.66;98559.19;4902913;29;20051;-77
2021/09/27 06:19:46;;;;;;;10.80;3.63;;;;;;;13.36;33.77;98567.53;4919084;29;20134;-76
2021/09/27 06:22:51;;;;;;;5.18;2.97;;;;;;;13.53;33.14;98573.00;4903481;29;20082;-76
2021/09/27 06:25:29;;;;;;;10.00;3.15;;;;;;;13.34;33.04;98569.53;4935673;29;20043;-76
2021/09/27 06:28:09;;;;;;;14.00;3.67;;;;;;;13.25;32.93;98575.88;4918823;29;20057;-76
2021/09/27 06:30:44;;;;;;;8.07;3.25;;;;;;;13.36;32.86;98572.91;4902978;29;20177;-77
2021/09/27 06:33:36;;;;;;;10.38;3.05;;;;;;;13.43;33.25;98572.28;4902699;29;20039;-76
2021/09/27 06:36:06;;;;;;;11.95;3.15;;;;;;;13.55;33.33;98560.25;4902932;29;20050;-77
2021/09/27 06:38:34;;;;;;;10.23;3.83;;;;;;;13.61;32.82;98556.91;4917262;29;20059;-77
2021/09/27 06:41:01;;;;;;;11.50;3.03;;;;;;;13.57;32.44;98568.97;4934215;29;20471;-77
2021/09/27 06:43:27;;;;;;;13.65;3.30;;;;;;;13.42;32.64;98559.84;4902401;29;20051;-78
2021/09/27 06:45:53;;;;;;;13.93;3.15;;;;;;;13.64;32.69;98575.38;4918457;29;20050;-77
2021/09/27 06:48:19;;;;;;;11.10;3.10;;;;;;;13.55;32.80;98576.38;4934227;29;20050;-78
2021/09/27 06:50:46;;;;;;;8.85;3.03;;;;;;;13.71;32.77;98575.59;4919049;29;20374;-77
2021/09/27 06:53:11;;;;;;;13.30;3.05;;;;;;;13.73;32.11;98568.22;4918834;29;20119;-78
2021/09/27 06:55:38;;;;;;;15.57;3.50;;;;;;;13.79;32.23;98589.88;4918404;29;20043;-77
2021/09/27 06:58:03;;;;;;;12.25;3.30;;;;;;;13.87;32.42;98588.25;4887095;29;20043;-76
2021/09/27 07:00:31;;;;;;;15.18;3.40;;;;;;;13.56;32.19;98583.41;4918388;29;20051;-77
2021/09/27 07:02:57;;;;;;;13.23;3.63;;;;;;;13.63;32.51;98589.84;4919898;29;20040;-78
2021/09/27 07:05:23;;;;;;;11.45;2.88;;;;;;;13.74;32.31;98592.22;4919964;29;20048;-77
2021/09/27 07:07:49;;;;;;;10.52;2.85;;;;;;;13.68;32.33;98575.91;4903004;29;20462;-76
2021/09/27 07:10:17;;;;;;;6.75;2.90;;;;;;;13.74;31.86;98602.97;4918561;29;20039;-77
2021/09/27 07:12:43;;;;;;;10.07;3.03;;;;;;;13.71;31.52;98613.19;4902433;29;20517;-78
2021/09/27 07:15:10;;;;;;;10.00;2.88;;;;;;;13.74;31.62;98618.25;4903366;29;20047;-77
2021/09/27 07:17:37;;;;;;;7.53;2.90;;;;;;;13.69;31.52;98599.06;4934928;29;20526;-76
2021/09/27 07:20:07;;;;;;;8.88;3.10;;;;;;;13.52;31.10;98607.06;4935537;29;20099;-78
2021/09/27 07:22:33;;;;;;;10.95;3.10;;;;;;;13.48;31.63;98608.38;4921166;29;20484;-76
2021/09/27 07:24:59;;;;;;;9.30;2.22;;;;;;;13.43;31.43;98599.97;4904806;29;20054;-77
2021/09/27 07:27:25;;;;;;;61.58;33.85;;;;;;;13.66;31.66;98623.59;4905147;29;20140;-77
2021/09/27 07:29:52;;;;;;;11.25;2.70;;;;;;;13.61;31.52;98629.41;4905089;29;20070;-78
2021/09/27 07:32:18;;;;;;;5.53;2.63;;;;;;;13.70;31.52;98631.16;4889296;29;20059;-77
2021/09/27 07:34:44;;;;;;;3.17;2.55;;;;;;;13.69;31.38;98616.06;4920128;29;20063;-76
2021/09/27 07:37:10;;;;;;;5.80;2.70;;;;;;;13.68;31.70;98621.56;4918868;29;20051;-77
2021/09/27 07:39:36;;;;;;;12.13;2.92;;;;;;;13.58;31.70;98624.38;4933859;29;20067;-77
2021/09/27 07:42:03;;;;;;;6.78;2.20;;;;;;;13.63;31.62;98616.69;4902264;29;20142;-78
2021/09/27 07:44:29;;;;;;;4.95;2.70;;;;;;;13.84;31.23;98613.56;4918611;29;20048;-77
2021/09/27 07:46:55;;;;;;;9.38;2.47;;;;;;;14.09;31.28;98622.59;4902115;29;20525;-77
2021/09/27 07:49:21;;;;;;;9.75;2.47;;;;;;;14.17;31.08;98627.97;4933360;29;20423;-76
2021/09/27 07:51:47;;;;;;;9.10;2.47;;;;;;;14.35;30.56;98622.50;4936479;29;20043;-76
2021/09/27 07:54:13;;;;;;;2.72;2.00;;;;;;;14.30;30.13;98611.41;4921109;29;20039;-77
2021/09/27 07:56:39;;;;;;;4.75;2.28;;;;;;;14.39;30.03;98623.84;4905503;29;20052;-77
2021/09/27 07:59:06;;;;;;;9.05;2.28;;;;;;;14.42;30.26;98610.09;4905455;29;20559;-77
2021/09/27 08:01:33;;;;;;;7.78;2.80;;;;;;;14.48;30.07;98622.88;4890198;29;20040;-77
2021/09/27 08:03:59;;;;;;;5.90;2.03;;;;;;;14.64;30.34;98638.22;4936819;29;20070;-76
2021/09/27 08:06:26;;;;;;;6.13;2.17;;;;;;;14.94;30.11;98633.22;4920932;29;20115;-77
2021/09/27 08:08:53;;;;;;;6.35;2.50;;;;;;;15.07;30.14;98639.75;4936940;29;20051;-80
2021/09/27 08:11:19;;;;;;;5.95;2.60;;;;;;;15.23;29.99;98630.84;4905760;29;20057;-78
2021/09/27 08:13:45;;;;;;;21.60;2.78;;;;;;;15.37;29.69;98631.16;4889938;29;20109;-77
2021/09/27 08:16:11;;;;;;;5.35;2.20;;;;;;;15.20;29.62;98638.41;4921137;29;20071;-78
2021/09/27 08:18:37;;;;;;;17.95;2.70;;;;;;;14.97;29.68;98638.22;4874322;29;20052;-77
2021/09/27 08:21:05;;;;;;;7.28;2.42;;;;;;;14.88;29.51;98636.56;4905258;29;20106;-77
2021/09/27 08:23:31;;;;;;;12.65;2.38;;;;;;;14.50;29.83;98641.56;4904752;29;20044;-78
2021/09/27 08:25:57;;;;;;;9.18;2.30;;;;;;;14.54;30.09;98637.53;4920854;29;20119;-76
2021/09/27 08:28:25;;;;;;;14.85;2.60;;;;;;;14.41;30.12;98637.16;4889448;29;20545;-78
2021/09/27 08:30:59;;;;;;;4.55;2.58;;;;;;;14.32;30.55;98631.72;4920542;29;20047;-78
2021/09/27 08:33:25;;;;;;;9.30;2.75;;;;;;;14.14;30.64;98633.72;4936657;29;20044;-79
2021/09/27 08:35:52;;;;;;;13.95;2.78;;;;;;;14.10;30.80;98643.06;4935954;29;20048;-76
2021/09/27 08:38:19;;;;;;;14.85;2.72;;;;;;;13.94;30.94;98624.22;4920179;29;20052;-77
2021/09/27 08:41:03;;;;;;;7.72;2.40;;;;;;;14.06;30.80;98641.72;4905211;29;20063;-77
2021/09/27 08:43:56;;;;;;;9.90;2.40;;;;;;;14.16;30.98;98647.81;4920693;29;20066;-77
2021/09/27 08:46:41;;;;;;;13.52;3.47;;;;;;;14.06;31.62;98645.25;4936257;29;20047;-78
2021/09/27 08:49:07;;;;;;;9.55;3.00;;;;;;;13.32;32.16;98622.56;4936328;29;20403;-77
2021/09/27 08:51:34;;;;;;;9.70;2.67;;;;;;;13.24;33.30;98638.59;4936288;29;20043;-77
2021/09/27 08:54:00;;;;;;;5.43;2.60;;;;;;;13.29;32.76;98659.59;4936290;29;20051;-77
2021/09/27 08:56:35;;;;;;;14.13;2.97;;;;;;;13.38;33.21;98655.13;4888811;29;20503;-76
2021/09/27 08:59:10;;;;;;;7.43;2.90;;;;;;;13.39;33.03;98646.06;4935969;29;20040;-78
2021/09/27 09:01:40;;;;;;;9.57;2.42;;;;;;;13.52;32.74;98657.22;4935598;29;20563;-77
2021/09/27 09:04:34;;;;;;;6.63;2.20;;;;;;;13.45;32.06;98656.19;4904120;29;20519;-77
2021/09/27 09:07:03;;;;;;;5.95;2.05;;;;;;;13.55;32.49;98662.28;4935862;29;20044;-77
2021/09/27 09:09:38;;;;;;;12.13;2.60;;;;;;;13.63;32.05;98669.56;4919834;29;20046;-77
2021/09/27 09:12:08;;;;;;;5.93;2.55;;;;;;;13.82;31.98;98675.53;4904879;29;20046;-78
2021/09/27 09:14:46;;;;;;;10.63;2.45;;;;;;;13.83;31.77;98666.47;4936190;29;20474;-77
2021/09/27 09:17:22;;;;;;;7.88;2.30;;;;;;;13.95;31.60;98663.50;4920063;29;20048;-77
2021/09/27 09:19:48;;;;;;;12.02;3.03;;;;;;;14.02;31.19;98668.06;4935725;29;20046;-77
2021/09/27 09:22:37;;;;;;;7.85;2.55;;;;;;;13.83;31.01;98674.53;4920032;29;20052;-77
2021/09/27 09:25:07;;;;;;;7.88;2.65;;;;;;;13.94;30.93;98675.25;4904384;29;20056;-77
2021/09/27 09:27:33;;;;;;;12.52;2.22;;;;;;;13.79;31.28;98683.06;4919882;29;20036;-77
2021/09/27 09:29:59;;;;;;;11.30;2.30;;;;;;;13.81;31.44;98670.34;4903818;29;20570;-77
2021/09/27 09:32:27;;;;;;;4.43;2.13;;;;;;;13.93;31.47;98681.63;4919518;29;20044;-77
2021/09/27 09:35:16;;;;;;;9.32;2.75;;;;;;;14.05;31.26;98681.19;4919493;29;20044;-76
2021/09/27 09:38:04;;;;;;;6.55;2.35;;;;;;;14.04;31.13;98675.97;4888281;29;20567;-77
2021/09/27 09:40:41;;;;;;;9.23;2.07;;;;;;;14.28;30.76;98669.84;4919013;29;20179;-77
2021/09/27 09:43:13;;;;;;;15.73;2.40;;;;;;;14.39;30.90;98682.16;4919111;29;20051;-77
2021/09/27 09:45:41;;;;;;;15.20;2.60;;;;;;;14.49;30.46;98672.13;4935074;29;20043;-78
2021/09/27 09:48:26;;;;;;;6.35;2.13;;;;;;;14.54;30.31;98675.19;4934874;29;20052;-77
2021/09/27 09:50:57;;;;;;;13.13;2.38;;;;;;;14.68;30.41;98677.22;4919058;29;20044;-77
2021/09/27 09:53:31;;;;;;;14.00;2.60;;;;;;;14.65;30.27;98672.19;4935440;29;20063;-77
2021/09/27 09:55:59;;;;;;;7.75;1.90;;;;;;;14.64;30.31;98673.19;4903351;29;20047;-76
2021/09/27 09:58:38;;;;;;;4.97;2.20;;;;;;;14.89;30.53;98678.59;4934521;29;20146;-78
2021/09/27 10:01:08;;;;;;;;;;;;;;;14.97;29.99;98673.22;4935646;29;20081;-77
2021/09/27 10:03:37;;;;;;;7.05;2.47;;;;;;;15.00;30.00;98665.66;4902798;29;19930;-77
2021/09/27 10:06:08;;;;;;;3.88;2.10;;;;;;;15.14;29.85;98688.38;4935017;29;20126;-77
2021/09/27 10:08:35;;;;;;;5.25;2.50;;;;;;;15.24;30.11;98675.59;4903267;29;20052;-77
2021/09/27 10:11:05;;;;;;;9.65;2.70;;;;;;;15.36;29.58;98672.56;4903391;29;20040;-76
2021/09/27 10:13:34;;;;;;;5.72;2.67;;;;;;;15.38;29.88;98700.16;4902789;29;20142;-77
2021/09/27 10:16:01;;;;;;;;;;;;;;;15.54;29.97;98684.84;4918982;29;20048;-78
2021/09/27 10:18:31;;;;;;;10.75;2.70;;;;;;;15.59;29.37;98687.00;4902969;29;19958;-77
2021/09/27 10:21:04;;;;;;;10.13;2.58;;;;;;;15.88;29.07;98691.88;4934377;29;20419;-78
2021/09/27 10:23:35;;;;;;;5.90;2.72;;;;;;;16.02;28.95;98695.69;4934217;29;20103;-77
2021/09/27 10:26:16;;;;;;;5.95;2.17;;;;;;;16.10;28.50;98700.22;4934076;29;20048;-77
2021/09/27 10:28:43;;;;;;;10.15;2.50;;;;;;;16.16;28.48;98699.53;4918280;29;20071;-78
2021/09/27 10:31:09;;;;;;;6.60;2.28;;;;;;;15.88;28.93;98701.81;4903187;29;20055;-78
2021/09/27 10:33:57;;;;;;;9.45;2.30;;;;;;;15.65;28.90;98707.91;4934292;29;20494;-77
2021/09/27 10:36:35;;;;;;;13.00;2.30;;;;;;;15.71;29.14;98711.78;4934337;29;20095;-77
2021/09/27 10:39:02;;;;;;;7.00;2.30;;;;;;;15.79;29.47;98709.06;4934142;29;20510;-76
2021/09/27 10:41:35;;;;;;;3.58;2.17;;;;;;;15.78;29.21;98719.00;4918591;29;20454;-77
2021/09/27 10:44:04;;;;;;;7.53;2.72;;;;;;;15.68;29.32;98728.28;4934216;29;20142;-77
2021/09/27 10:46:36;;;;;;;7.57;2.63;;;;;;;15.51;29.36;98735.50;4902549;29;20052;-76
2021/09/27 10:49:03;;;;;;;3.45;2.33;;;;;;;15.40;29.84;98731.31;4933790;29;20040;-77
2021/09/27 10:51:34;;;;;;;4.70;2.35;;;;;;;15.45;29.71;98733.47;4934071;29;20127;-77
2021/09/27 10:54:25;;;;;;;8.98;2.50;;;;;;;15.20;30.02;98746.94;4934577;29;20095;-78
2021/09/27 10:56:55;;;;;;;6.43;2.90;;;;;;;15.09;30.60;98744.56;4933998;29;20051;-77
2021/09/27 10:59:59;;;;;;;3.30;2.50;;;;;;;15.07;30.18;98757.34;4918660;29;20047;-77
2021/09/27 11:02:39;;;;;;;8.65;2.45;;;;;;;14.88;30.66;98757.66;4904952;29;20052;-76
2021/09/27 11:05:22;;;;;;;6.13;2.22;;;;;;;14.92;30.90;98751.78;4918426;29;20052;-77
2021/09/27 11:07:53;;;;;;;4.30;2.15;;;;;;;14.86;31.16;98759.69;4902571;29;20080;-77
2021/09/27 11:10:27;;;;;;;6.18;2.10;;;;;;;14.75;31.24;98758.13;4918266;29;20051;-76
2021/09/27 11:12:54;;;;;;;8.50;2.92;;;;;;;14.70;31.04;98766.66;4918727;29;20043;-78
2021/09/27 11:15:51;;;;;;;14.15;2.50;;;;;;;14.56;31.39;98767.31;4919082;29;20043;-79
2021/09/27 11:18:28;;;;;;;13.70;3.17;;;;;;;14.46;31.53;98771.94;4918266;29;20051;-77
2021/09/27 11:20:54;;;;;;;11.65;2.85;;;;;;;14.43;31.87;98774.94;4934405;29;20054;-77
2021/09/27 11:23:25;;;;;;;4.53;2.50;;;;;;;14.17;31.94;98781.19;4918044;29;20130;-77
2021/09/27 11:26:18;;;;;;;7.35;2.58;;;;;;;14.11;32.41;98792.59;4920122;29;20079;-77
2021/09/27 11:28:47;;;;;;;5.30;2.50;;;;;;;14.00;32.63;98782.13;4937805;29;20104;-77
2021/09/27 11:31:18;;;;;;;6.20;2.63;;;;;;;14.17;32.79;98789.25;4921673;29;20130;-76
2021/09/27 11:33:51;;;;;;;7.00;2.90;;;;;;;14.04;32.88;98796.91;4890285;29;20043;-77
2021/09/27 11:36:17;;;;;;;8.77;2.50;;;;;;;13.84;33.46;98805.19;4906466;29;20046;-77
2021/09/27 11:38:48;;;;;;;8.65;2.60;;;;;;;13.60;33.37;98804.97;4937520;29;20052;-76
2021/09/27 11:41:13;;;;;;;8.35;2.65;;;;;;;13.62;33.81;98813.75;4905974;29;20088;-79
2021/09/27 11:44:06;;;;;;;8.25;2.45;;;;;;;13.57;33.71;98807.97;4921332;29;20137;-77
2021/09/27 11:47:04;;;;;;;16.33;2.42;;;;;;;13.57;33.81;98803.44;4905638;29;20592;-77
2021/09/27 11:50:06;;;;;;;9.23;2.78;;;;;;;13.63;34.33;98814.56;4937323;29;20082;-77
2021/09/27 11:52:42;;;;;;;6.75;2.75;;;;;;;13.41;34.39;98813.19;4937523;29;20048;-77
2021/09/27 11:55:14;;;;;;;13.02;2.40;;;;;;;13.41;34.56;98829.31;4921372;29;20250;-77
2021/09/27 11:57:47;;;;;;;13.60;3.03;;;;;;;13.20;34.75;98838.47;4905651;29;20051;-77
2021/09/27 12:00:21;;;;;;;6.43;2.60;;;;;;;13.06;34.84;98842.50;4921174;29;20066;-77
2021/09/27 12:03:05;;;;;;;7.50;2.58;;;;;;;12.87;34.89;98843.47;4921717;29;20058;-77
2021/09/27 12:05:44;;;;;;;6.70;2.22;;;;;;;12.68;35.44;98843.56;4938336;29;20098;-76
2021/09/27 12:08:23;;;;;;;6.57;2.58;;;;;;;12.55;35.63;98846.56;4921336;29;20103;-77